sensor_id;sensor_type;location;lat;lon;timestamp;P1;durP1;ratioP1;P2;durP2;ratioP2
37077;SDS011;22989;55.998;37.212;2022-09-24T00:01:14;4.00;;;3.38;;
37077;SDS011;22989;55.998;37.212;2022-09-24T00:03:48;4.13;;;3.35;;
37077;SDS011;22989;55.998;37.212;2022-09-24T00:06:16;3.67;;;3.10;;
37077;SDS011;22989;55.998;37.212;2022-09-24T00:08:45;4.90;;;3.28;;
37077;SDS011;22989;55.998;37.212;2022-09-24T00:11:13;4.15;;;3.35;;
37077;SDS011;22989;55.998;37.212;2022-09-24T00:13:39;3.97;;;3.20;;
37077;SDS011;22989;55.998;37.212;2022-09-24T00:16:06;3.70;;;3.22;;
37077;SDS011;22989;55.998;37.212;2022-09-24T00:18:33;4.50;;;2.92;;
37077;SDS011;22989;55.998;37.212;2022-09-24T00:20:59;6.03;;;3.58;;
37077;SDS011;22989;55.998;37.212;2022-09-24T00:23:25;4.28;;;3.00;;
37077;SDS011;22989;55.998;37.212;2022-09-24T00:25:51;4.30;;;2.88;;
37077;SDS011;22989;55.998;37.212;2022-09-24T00:28:35;3.30;;;3.00;;
37077;SDS011;22989;55.998;37.212;2022-09-24T00:31:05;6.05;;;3.30;;
37077;SDS011;22989;55.998;37.212;2022-09-24T00:33:31;5.65;;;3.20;;
37077;SDS011;22989;55.998;37.212;2022-09-24T00:36:02;3.53;;;3.05;;
37077;SDS011;22989;55.998;37.212;2022-09-24T00:38:32;6.57;;;3.00;;
37077;SDS011;22989;55.998;37.212;2022-09-24T00:40:58;6.70;;;3.00;;
37077;SDS011;22989;55.998;37.212;2022-09-24T00:46:16;3.53;;;3.00;;
37077;SDS011;22989;55.998;37.212;2022-09-24T00:48:51;3.63;;;2.83;;
37077;SDS011;22989;55.998;37.212;2022-09-24T00:51:22;4.20;;;2.85;;
37077;SDS011;22989;55.998;37.212;2022-09-24T00:53:51;3.42;;;2.60;;
37077;SDS011;22989;55.998;37.212;2022-09-24T00:56:20;3.28;;;2.50;;
37077;SDS011;22989;55.998;37.212;2022-09-24T00:58:52;4.20;;;3.03;;
37077;SDS011;22989;55.998;37.212;2022-09-24T01:01:21;3.15;;;2.35;;
37077;SDS011;22989;55.998;37.212;2022-09-24T01:03:48;4.43;;;2.22;;
37077;SDS011;22989;55.998;37.212;2022-09-24T01:06:15;3.13;;;2.30;;
37077;SDS011;22989;55.998;37.212;2022-09-24T01:08:41;3.03;;;2.00;;
37077;SDS011;22989;55.998;37.212;2022-09-24T01:11:23;3.35;;;1.92;;
37077;SDS011;22989;55.998;37.212;2022-09-24T01:22:11;2.40;;;1.85;;
37077;SDS011;22989;55.998;37.212;2022-09-24T01:27:19;2.08;;;1.52;;
37077;SDS011;22989;55.998;37.212;2022-09-24T01:35:30;2.05;;;1.50;;
37077;SDS011;22989;55.998;37.212;2022-09-24T01:38:01;1.90;;;1.50;;
37077;SDS011;22989;55.998;37.212;2022-09-24T01:40:30;2.45;;;1.48;;
37077;SDS011;22989;55.998;37.212;2022-09-24T01:42:58;2.20;;;1.40;;
37077;SDS011;22989;55.998;37.212;2022-09-24T01:45:26;4.20;;;1.40;;
37077;SDS011;22989;55.998;37.212;2022-09-24T01:47:56;2.08;;;1.55;;
37077;SDS011;22989;55.998;37.212;2022-09-24T01:50:25;1.95;;;1.23;;
37077;SDS011;22989;55.998;37.212;2022-09-24T01:52:55;2.40;;;1.10;;
37077;SDS011;22989;55.998;37.212;2022-09-24T01:55:29;3.00;;;1.10;;
37077;SDS011;22989;55.998;37.212;2022-09-24T01:58:03;1.20;;;1.02;;
37077;SDS011;22989;55.998;37.212;2022-09-24T02:00:35;1.02;;;1.00;;
37077;SDS011;22989;55.998;37.212;2022-09-24T02:03:08;1.35;;;1.20;;
37077;SDS011;22989;55.998;37.212;2022-09-24T02:05:57;3.70;;;1.20;;
37077;SDS011;22989;55.998;37.212;2022-09-24T02:08:38;1.00;;;1.00;;
37077;SDS011;22989;55.998;37.212;2022-09-24T02:11:07;1.10;;;1.00;;
37077;SDS011;22989;55.998;37.212;2022-09-24T02:13:42;1.65;;;1.30;;
37077;SDS011;22989;55.998;37.212;2022-09-24T02:16:14;1.00;;;0.93;;
37077;SDS011;22989;55.998;37.212;2022-09-24T02:18:45;1.65;;;1.20;;
37077;SDS011;22989;55.998;37.212;2022-09-24T02:21:15;1.85;;;1.00;;
37077;SDS011;22989;55.998;37.212;2022-09-24T02:24:03;2.30;;;1.15;;
37077;SDS011;22989;55.998;37.212;2022-09-24T02:26:32;1.75;;;0.90;;
37077;SDS011;22989;55.998;37.212;2022-09-24T02:28:58;1.17;;;1.00;;
37077;SDS011;22989;55.998;37.212;2022-09-24T02:31:29;2.58;;;1.67;;
37077;SDS011;22989;55.998;37.212;2022-09-24T02:34:02;1.65;;;0.95;;
37077;SDS011;22989;55.998;37.212;2022-09-24T02:36:51;1.38;;;0.70;;
37077;SDS011;22989;55.998;37.212;2022-09-24T02:39:19;2.40;;;0.80;;
37077;SDS011;22989;55.998;37.212;2022-09-24T02:41:45;0.50;;;0.50;;
37077;SDS011;22989;55.998;37.212;2022-09-24T02:44:16;1.70;;;0.80;;
37077;SDS011;22989;55.998;37.212;2022-09-24T02:46:43;1.67;;;0.68;;
37077;SDS011;22989;55.998;37.212;2022-09-24T02:49:10;0.98;;;0.85;;
37077;SDS011;22989;55.998;37.212;2022-09-24T02:51:37;0.70;;;0.70;;
37077;SDS011;22989;55.998;37.212;2022-09-24T02:54:03;0.93;;;0.80;;
37077;SDS011;22989;55.998;37.212;2022-09-24T02:56:29;1.23;;;0.80;;
37077;SDS011;22989;55.998;37.212;2022-09-24T02:58:55;1.00;;;0.70;;
37077;SDS011;22989;55.998;37.212;2022-09-24T03:01:20;0.60;;;0.60;;
37077;SDS011;22989;55.998;37.212;2022-09-24T03:03:47;0.70;;;0.70;;
37077;SDS011;22989;55.998;37.212;2022-09-24T03:06:13;0.65;;;0.55;;
37077;SDS011;22989;55.998;37.212;2022-09-24T03:08:39;2.40;;;0.63;;
37077;SDS011;22989;55.998;37.212;2022-09-24T03:11:07;1.55;;;0.63;;
37077;SDS011;22989;55.998;37.212;2022-09-24T03:13:36;0.80;;;0.50;;
37077;SDS011;22989;55.998;37.212;2022-09-24T03:16:03;0.50;;;0.50;;
37077;SDS011;22989;55.998;37.212;2022-09-24T03:18:30;0.80;;;0.50;;
37077;SDS011;22989;55.998;37.212;2022-09-24T03:20:57;0.40;;;0.40;;
37077;SDS011;22989;55.998;37.212;2022-09-24T03:23:26;0.40;;;0.40;;
37077;SDS011;22989;55.998;37.212;2022-09-24T03:25:53;0.50;;;0.50;;
37077;SDS011;22989;55.998;37.212;2022-09-24T03:28:19;0.63;;;0.40;;
37077;SDS011;22989;55.998;37.212;2022-09-24T03:30:45;0.50;;;0.50;;
37077;SDS011;22989;55.998;37.212;2022-09-24T03:35:55;0.60;;;0.50;;
37077;SDS011;22989;55.998;37.212;2022-09-24T03:38:22;0.38;;;0.38;;
37077;SDS011;22989;55.998;37.212;2022-09-24T03:40:48;0.47;;;0.47;;
37077;SDS011;22989;55.998;37.212;2022-09-24T03:43:14;0.50;;;0.50;;
37077;SDS011;22989;55.998;37.212;2022-09-24T03:45:40;0.40;;;0.40;;
37077;SDS011;22989;55.998;37.212;2022-09-24T03:48:05;0.40;;;0.40;;
37077;SDS011;22989;55.998;37.212;2022-09-24T03:50:34;0.57;;;0.57;;
37077;SDS011;22989;55.998;37.212;2022-09-24T03:53:00;1.38;;;0.50;;
37077;SDS011;22989;55.998;37.212;2022-09-24T03:55:26;0.50;;;0.50;;
37077;SDS011;22989;55.998;37.212;2022-09-24T03:57:51;0.40;;;0.40;;
37077;SDS011;22989;55.998;37.212;2022-09-24T04:00:17;1.40;;;0.45;;
37077;SDS011;22989;55.998;37.212;2022-09-24T04:02:43;0.40;;;0.40;;
37077;SDS011;22989;55.998;37.212;2022-09-24T04:05:09;0.40;;;0.40;;
37077;SDS011;22989;55.998;37.212;2022-09-24T04:07:34;2.60;;;0.50;;
37077;SDS011;22989;55.998;37.212;2022-09-24T04:10:00;0.68;;;0.50;;
37077;SDS011;22989;55.998;37.212;2022-09-24T04:12:26;1.65;;;0.52;;
37077;SDS011;22989;55.998;37.212;2022-09-24T04:14:51;0.50;;;0.50;;
37077;SDS011;22989;55.998;37.212;2022-09-24T04:17:17;0.77;;;0.68;;
37077;SDS011;22989;55.998;37.212;2022-09-24T04:19:43;0.60;;;0.60;;
37077;SDS011;22989;55.998;37.212;2022-09-24T04:22:08;0.60;;;0.60;;
37077;SDS011;22989;55.998;37.212;2022-09-24T04:24:34;0.60;;;0.60;;
37077;SDS011;22989;55.998;37.212;2022-09-24T04:26:59;0.70;;;0.63;;
37077;SDS011;22989;55.998;37.212;2022-09-24T04:29:25;1.23;;;0.70;;
37077;SDS011;22989;55.998;37.212;2022-09-24T04:31:51;0.60;;;0.60;;
37077;SDS011;22989;55.998;37.212;2022-09-24T04:34:16;0.70;;;0.70;;
37077;SDS011;22989;55.998;37.212;2022-09-24T04:36:42;3.85;;;0.57;;
37077;SDS011;22989;55.998;37.212;2022-09-24T04:39:08;4.65;;;0.63;;
37077;SDS011;22989;55.998;37.212;2022-09-24T04:41:36;0.50;;;0.50;;
37077;SDS011;22989;55.998;37.212;2022-09-24T04:44:02;0.47;;;0.40;;
37077;SDS011;22989;55.998;37.212;2022-09-24T04:46:29;0.70;;;0.50;;
37077;SDS011;22989;55.998;37.212;2022-09-24T04:48:58;2.15;;;0.60;;
37077;SDS011;22989;55.998;37.212;2022-09-24T04:51:25;0.50;;;0.50;;
37077;SDS011;22989;55.998;37.212;2022-09-24T04:53:50;1.38;;;0.60;;
37077;SDS011;22989;55.998;37.212;2022-09-24T04:56:16;0.50;;;0.50;;
37077;SDS011;22989;55.998;37.212;2022-09-24T04:58:42;1.00;;;0.50;;
37077;SDS011;22989;55.998;37.212;2022-09-24T05:01:08;1.58;;;0.50;;
37077;SDS011;22989;55.998;37.212;2022-09-24T05:03:33;0.60;;;0.60;;
37077;SDS011;22989;55.998;37.212;2022-09-24T05:05:59;0.80;;;0.47;;
37077;SDS011;22989;55.998;37.212;2022-09-24T05:08:26;0.50;;;0.50;;
37077;SDS011;22989;55.998;37.212;2022-09-24T05:10:52;0.60;;;0.57;;
37077;SDS011;22989;55.998;37.212;2022-09-24T05:13:18;0.40;;;0.40;;
37077;SDS011;22989;55.998;37.212;2022-09-24T05:15:44;0.75;;;0.50;;
37077;SDS011;22989;55.998;37.212;2022-09-24T05:18:10;0.70;;;0.50;;
37077;SDS011;22989;55.998;37.212;2022-09-24T05:20:36;0.50;;;0.50;;
37077;SDS011;22989;55.998;37.212;2022-09-24T05:23:02;0.55;;;0.55;;
37077;SDS011;22989;55.998;37.212;2022-09-24T05:25:27;0.50;;;0.50;;
37077;SDS011;22989;55.998;37.212;2022-09-24T05:27:53;1.13;;;0.80;;
37077;SDS011;22989;55.998;37.212;2022-09-24T05:30:20;1.95;;;0.50;;
37077;SDS011;22989;55.998;37.212;2022-09-24T05:32:48;0.45;;;0.45;;
37077;SDS011;22989;55.998;37.212;2022-09-24T05:35:16;1.60;;;0.70;;
37077;SDS011;22989;55.998;37.212;2022-09-24T05:37:47;0.50;;;0.50;;
37077;SDS011;22989;55.998;37.212;2022-09-24T05:40:17;2.17;;;0.70;;
37077;SDS011;22989;55.998;37.212;2022-09-24T05:43:02;0.40;;;0.40;;
37077;SDS011;22989;55.998;37.212;2022-09-24T05:45:29;0.88;;;0.50;;
37077;SDS011;22989;55.998;37.212;2022-09-24T05:47:55;0.40;;;0.40;;
37077;SDS011;22989;55.998;37.212;2022-09-24T05:50:21;0.68;;;0.30;;
37077;SDS011;22989;55.998;37.212;2022-09-24T05:52:47;1.05;;;0.40;;
37077;SDS011;22989;55.998;37.212;2022-09-24T05:55:12;0.40;;;0.40;;
37077;SDS011;22989;55.998;37.212;2022-09-24T05:57:38;0.80;;;0.40;;
37077;SDS011;22989;55.998;37.212;2022-09-24T06:00:04;1.27;;;0.50;;
37077;SDS011;22989;55.998;37.212;2022-09-24T06:02:37;2.13;;;0.40;;
37077;SDS011;22989;55.998;37.212;2022-09-24T06:05:03;0.50;;;0.40;;
37077;SDS011;22989;55.998;37.212;2022-09-24T06:07:28;0.40;;;0.40;;
37077;SDS011;22989;55.998;37.212;2022-09-24T06:09:55;1.95;;;0.43;;
37077;SDS011;22989;55.998;37.212;2022-09-24T06:12:23;0.50;;;0.50;;
37077;SDS011;22989;55.998;37.212;2022-09-24T06:14:49;0.40;;;0.40;;
37077;SDS011;22989;55.998;37.212;2022-09-24T06:17:15;2.25;;;0.50;;
37077;SDS011;22989;55.998;37.212;2022-09-24T06:19:40;1.35;;;0.60;;
37077;SDS011;22989;55.998;37.212;2022-09-24T06:22:06;1.58;;;0.70;;
37077;SDS011;22989;55.998;37.212;2022-09-24T06:24:31;2.72;;;0.50;;
37077;SDS011;22989;55.998;37.212;2022-09-24T06:26:57;1.55;;;0.63;;
37077;SDS011;22989;55.998;37.212;2022-09-24T06:29:23;1.23;;;0.50;;
37077;SDS011;22989;55.998;37.212;2022-09-24T06:31:48;0.40;;;0.40;;
37077;SDS011;22989;55.998;37.212;2022-09-24T06:34:14;0.82;;;0.40;;
37077;SDS011;22989;55.998;37.212;2022-09-24T06:36:40;0.40;;;0.40;;
37077;SDS011;22989;55.998;37.212;2022-09-24T06:39:06;2.05;;;0.40;;
37077;SDS011;22989;55.998;37.212;2022-09-24T06:41:32;2.05;;;0.57;;
37077;SDS011;22989;55.998;37.212;2022-09-24T06:43:57;0.50;;;0.50;;
37077;SDS011;22989;55.998;37.212;2022-09-24T06:46:23;1.38;;;0.60;;
37077;SDS011;22989;55.998;37.212;2022-09-24T06:48:50;0.93;;;0.60;;
37077;SDS011;22989;55.998;37.212;2022-09-24T06:51:18;0.52;;;0.50;;
37077;SDS011;22989;55.998;37.212;2022-09-24T06:53:44;1.35;;;0.47;;
37077;SDS011;22989;55.998;37.212;2022-09-24T06:56:09;1.02;;;0.43;;
37077;SDS011;22989;55.998;37.212;2022-09-24T06:58:35;0.50;;;0.50;;
37077;SDS011;22989;55.998;37.212;2022-09-24T07:01:01;0.30;;;0.30;;
37077;SDS011;22989;55.998;37.212;2022-09-24T07:03:27;0.77;;;0.75;;
37077;SDS011;22989;55.998;37.212;2022-09-24T07:05:58;1.45;;;0.50;;
37077;SDS011;22989;55.998;37.212;2022-09-24T07:08:25;0.55;;;0.55;;
37077;SDS011;22989;55.998;37.212;2022-09-24T07:10:50;3.53;;;0.47;;
37077;SDS011;22989;55.998;37.212;2022-09-24T07:13:19;0.60;;;0.60;;
37077;SDS011;22989;55.998;37.212;2022-09-24T07:15:48;0.50;;;0.50;;
37077;SDS011;22989;55.998;37.212;2022-09-24T07:18:15;0.60;;;0.60;;
37077;SDS011;22989;55.998;37.212;2022-09-24T07:20:41;1.73;;;0.60;;
37077;SDS011;22989;55.998;37.212;2022-09-24T07:23:08;0.60;;;0.60;;
37077;SDS011;22989;55.998;37.212;2022-09-24T07:25:35;0.73;;;0.50;;
37077;SDS011;22989;55.998;37.212;2022-09-24T07:28:08;0.50;;;0.50;;
37077;SDS011;22989;55.998;37.212;2022-09-24T07:30:35;0.50;;;0.50;;
37077;SDS011;22989;55.998;37.212;2022-09-24T07:33:01;0.70;;;0.70;;
37077;SDS011;22989;55.998;37.212;2022-09-24T07:35:28;0.57;;;0.57;;
37077;SDS011;22989;55.998;37.212;2022-09-24T07:38:01;0.52;;;0.50;;
37077;SDS011;22989;55.998;37.212;2022-09-24T07:40:36;0.60;;;0.60;;
37077;SDS011;22989;55.998;37.212;2022-09-24T07:43:02;0.63;;;0.60;;
37077;SDS011;22989;55.998;37.212;2022-09-24T07:45:27;0.70;;;0.70;;
37077;SDS011;22989;55.998;37.212;2022-09-24T07:48:00;1.15;;;0.88;;
37077;SDS011;22989;55.998;37.212;2022-09-24T07:50:29;0.60;;;0.60;;
37077;SDS011;22989;55.998;37.212;2022-09-24T07:52:56;2.95;;;0.88;;
37077;SDS011;22989;55.998;37.212;2022-09-24T07:55:22;2.15;;;0.80;;
37077;SDS011;22989;55.998;37.212;2022-09-24T07:57:49;1.73;;;0.68;;
37077;SDS011;22989;55.998;37.212;2022-09-24T08:00:16;1.25;;;0.60;;
37077;SDS011;22989;55.998;37.212;2022-09-24T08:02:46;1.30;;;0.77;;
37077;SDS011;22989;55.998;37.212;2022-09-24T08:05:13;1.50;;;0.82;;
37077;SDS011;22989;55.998;37.212;2022-09-24T08:07:40;0.57;;;0.57;;
37077;SDS011;22989;55.998;37.212;2022-09-24T08:10:06;2.08;;;0.75;;
37077;SDS011;22989;55.998;37.212;2022-09-24T08:12:33;0.50;;;0.50;;
37077;SDS011;22989;55.998;37.212;2022-09-24T08:14:58;0.80;;;0.80;;
37077;SDS011;22989;55.998;37.212;2022-09-24T08:17:24;0.60;;;0.60;;
37077;SDS011;22989;55.998;37.212;2022-09-24T08:19:50;0.95;;;0.60;;
37077;SDS011;22989;55.998;37.212;2022-09-24T08:22:21;1.30;;;0.65;;
37077;SDS011;22989;55.998;37.212;2022-09-24T08:24:49;0.70;;;0.70;;
37077;SDS011;22989;55.998;37.212;2022-09-24T08:27:15;3.47;;;0.90;;
37077;SDS011;22989;55.998;37.212;2022-09-24T08:29:41;0.90;;;0.80;;
37077;SDS011;22989;55.998;37.212;2022-09-24T08:32:07;0.73;;;0.73;;
37077;SDS011;22989;55.998;37.212;2022-09-24T08:34:33;2.25;;;0.70;;
37077;SDS011;22989;55.998;37.212;2022-09-24T08:37:06;0.88;;;0.77;;
37077;SDS011;22989;55.998;37.212;2022-09-24T08:39:32;1.63;;;0.60;;
37077;SDS011;22989;55.998;37.212;2022-09-24T08:55:41;0.93;;;0.70;;
37077;SDS011;22989;55.998;37.212;2022-09-24T09:00:54;0.70;;;0.70;;
37077;SDS011;22989;55.998;37.212;2022-09-24T09:03:39;1.00;;;0.68;;
37077;SDS011;22989;55.998;37.212;2022-09-24T09:12:02;1.20;;;0.85;;
37077;SDS011;22989;55.998;37.212;2022-09-24T09:17:05;1.15;;;0.60;;
37077;SDS011;22989;55.998;37.212;2022-09-24T09:19:40;1.42;;;0.80;;
37077;SDS011;22989;55.998;37.212;2022-09-24T09:22:16;2.45;;;1.60;;
37077;SDS011;22989;55.998;37.212;2022-09-24T09:24:47;2.90;;;0.95;;
37077;SDS011;22989;55.998;37.212;2022-09-24T09:27:17;2.28;;;0.85;;
37077;SDS011;22989;55.998;37.212;2022-09-24T09:29:46;1.25;;;0.80;;
37077;SDS011;22989;55.998;37.212;2022-09-24T09:35:14;0.60;;;0.60;;
37077;SDS011;22989;55.998;37.212;2022-09-24T09:37:53;0.70;;;0.70;;
37077;SDS011;22989;55.998;37.212;2022-09-24T09:40:26;0.93;;;0.65;;
37077;SDS011;22989;55.998;37.212;2022-09-24T09:43:01;0.75;;;0.55;;
37077;SDS011;22989;55.998;37.212;2022-09-24T09:48:12;0.60;;;0.60;;
37077;SDS011;22989;55.998;37.212;2022-09-24T09:50:45;0.98;;;0.80;;
37077;SDS011;22989;55.998;37.212;2022-09-24T09:55:50;0.73;;;0.73;;
37077;SDS011;22989;55.998;37.212;2022-09-24T09:58:18;0.70;;;0.70;;
37077;SDS011;22989;55.998;37.212;2022-09-24T10:00:48;1.13;;;0.75;;
37077;SDS011;22989;55.998;37.212;2022-09-24T10:06:00;0.50;;;0.50;;
37077;SDS011;22989;55.998;37.212;2022-09-24T10:08:27;1.02;;;0.60;;
37077;SDS011;22989;55.998;37.212;2022-09-24T10:11:02;0.50;;;0.50;;
37077;SDS011;22989;55.998;37.212;2022-09-24T10:13:28;0.63;;;0.60;;
37077;SDS011;22989;55.998;37.212;2022-09-24T10:15:58;1.25;;;0.70;;
37077;SDS011;22989;55.998;37.212;2022-09-24T10:20:54;0.73;;;0.73;;
37077;SDS011;22989;55.998;37.212;2022-09-24T10:23:23;1.88;;;1.42;;
37077;SDS011;22989;55.998;37.212;2022-09-24T10:25:59;0.95;;;0.68;;
37077;SDS011;22989;55.998;37.212;2022-09-24T10:28:26;0.85;;;0.60;;
37077;SDS011;22989;55.998;37.212;2022-09-24T10:31:15;0.65;;;0.65;;
37077;SDS011;22989;55.998;37.212;2022-09-24T10:33:44;0.88;;;0.55;;
37077;SDS011;22989;55.998;37.212;2022-09-24T10:36:13;1.27;;;0.73;;
37077;SDS011;22989;55.998;37.212;2022-09-24T10:38:39;2.33;;;1.20;;
37077;SDS011;22989;55.998;37.212;2022-09-24T10:43:51;1.35;;;1.20;;
37077;SDS011;22989;55.998;37.212;2022-09-24T10:49:08;0.93;;;0.80;;
37077;SDS011;22989;55.998;37.212;2022-09-24T10:52:12;0.77;;;0.63;;
37077;SDS011;22989;55.998;37.212;2022-09-24T10:57:49;0.50;;;0.50;;
37077;SDS011;22989;55.998;37.212;2022-09-24T11:03:13;0.45;;;0.45;;
37077;SDS011;22989;55.998;37.212;2022-09-24T11:05:52;0.88;;;0.75;;
37077;SDS011;22989;55.998;37.212;2022-09-24T11:33:23;1.20;;;0.70;;
37077;SDS011;22989;55.998;37.212;2022-09-24T11:36:24;0.85;;;0.75;;
37077;SDS011;22989;55.998;37.212;2022-09-24T12:01:36;0.80;;;0.80;;
37077;SDS011;22989;55.998;37.212;2022-09-24T12:04:08;0.60;;;0.60;;
37077;SDS011;22989;55.998;37.212;2022-09-24T12:06:55;0.82;;;0.73;;
37077;SDS011;22989;55.998;37.212;2022-09-24T12:09:34;0.70;;;0.55;;
37077;SDS011;22989;55.998;37.212;2022-09-24T12:12:09;0.60;;;0.60;;
37077;SDS011;22989;55.998;37.212;2022-09-24T12:14:45;1.60;;;0.80;;
37077;SDS011;22989;55.998;37.212;2022-09-24T12:20:20;3.22;;;1.63;;
37077;SDS011;22989;55.998;37.212;2022-09-24T12:22:51;1.60;;;1.05;;
37077;SDS011;22989;55.998;37.212;2022-09-24T12:25:24;1.13;;;0.77;;
37077;SDS011;22989;55.998;37.212;2022-09-24T12:27:53;0.95;;;0.80;;
37077;SDS011;22989;55.998;37.212;2022-09-24T12:30:32;0.68;;;0.60;;
37077;SDS011;22989;55.998;37.212;2022-09-24T12:33:26;0.75;;;0.75;;
37077;SDS011;22989;55.998;37.212;2022-09-24T12:38:43;2.90;;;0.80;;
37077;SDS011;22989;55.998;37.212;2022-09-24T12:46:54;1.70;;;0.60;;
37077;SDS011;22989;55.998;37.212;2022-09-24T12:54:42;1.23;;;1.03;;
37077;SDS011;22989;55.998;37.212;2022-09-24T12:57:16;1.20;;;1.10;;
37077;SDS011;22989;55.998;37.212;2022-09-24T12:59:49;2.33;;;0.90;;
37077;SDS011;22989;55.998;37.212;2022-09-24T13:04:43;2.92;;;1.10;;
37077;SDS011;22989;55.998;37.212;2022-09-24T13:09:52;2.13;;;1.25;;
37077;SDS011;22989;55.998;37.212;2022-09-24T13:12:30;2.58;;;1.23;;
37077;SDS011;22989;55.998;37.212;2022-09-24T13:14:58;2.00;;;1.10;;
37077;SDS011;22989;55.998;37.212;2022-09-24T13:17:33;1.08;;;0.98;;
37077;SDS011;22989;55.998;37.212;2022-09-24T13:20:04;1.75;;;1.10;;
37077;SDS011;22989;55.998;37.212;2022-09-24T13:22:35;1.35;;;1.17;;
37077;SDS011;22989;55.998;37.212;2022-09-24T13:27:38;1.50;;;1.05;;
37077;SDS011;22989;55.998;37.212;2022-09-24T13:32:33;1.98;;;1.15;;
37077;SDS011;22989;55.998;37.212;2022-09-24T13:35:04;2.88;;;1.30;;
37077;SDS011;22989;55.998;37.212;2022-09-24T13:37:34;1.73;;;1.10;;
37077;SDS011;22989;55.998;37.212;2022-09-24T13:40:06;2.90;;;1.25;;
37077;SDS011;22989;55.998;37.212;2022-09-24T13:45:13;4.57;;;1.45;;
37077;SDS011;22989;55.998;37.212;2022-09-24T13:47:43;3.20;;;1.70;;
37077;SDS011;22989;55.998;37.212;2022-09-24T13:55:43;2.03;;;1.50;;
37077;SDS011;22989;55.998;37.212;2022-09-24T14:01:03;3.70;;;1.40;;
37077;SDS011;22989;55.998;37.212;2022-09-24T14:03:35;2.08;;;1.25;;
37077;SDS011;22989;55.998;37.212;2022-09-24T14:06:12;1.73;;;1.05;;
37077;SDS011;22989;55.998;37.212;2022-09-24T14:08:43;2.15;;;1.17;;
37077;SDS011;22989;55.998;37.212;2022-09-24T14:11:20;2.45;;;1.30;;
37077;SDS011;22989;55.998;37.212;2022-09-24T14:13:50;1.92;;;1.40;;
37077;SDS011;22989;55.998;37.212;2022-09-24T14:16:24;4.13;;;2.75;;
37077;SDS011;22989;55.998;37.212;2022-09-24T14:19:03;2.42;;;1.70;;
37077;SDS011;22989;55.998;37.212;2022-09-24T14:21:49;6.68;;;4.35;;
37077;SDS011;22989;55.998;37.212;2022-09-24T14:24:35;5.38;;;4.28;;
37077;SDS011;22989;55.998;37.212;2022-09-24T14:27:12;3.28;;;1.60;;
37077;SDS011;22989;55.998;37.212;2022-09-24T14:29:43;5.05;;;3.10;;
37077;SDS011;22989;55.998;37.212;2022-09-24T14:32:18;3.17;;;1.60;;
37077;SDS011;22989;55.998;37.212;2022-09-24T14:35:00;3.15;;;2.20;;
37077;SDS011;22989;55.998;37.212;2022-09-24T14:37:45;3.97;;;1.70;;
37077;SDS011;22989;55.998;37.212;2022-09-24T14:40:18;3.67;;;2.20;;
37077;SDS011;22989;55.998;37.212;2022-09-24T14:42:46;3.10;;;2.15;;
37077;SDS011;22989;55.998;37.212;2022-09-24T14:45:18;9.20;;;4.93;;
37077;SDS011;22989;55.998;37.212;2022-09-24T14:48:01;4.70;;;1.70;;
37077;SDS011;22989;55.998;37.212;2022-09-24T14:52:56;2.38;;;1.73;;
37077;SDS011;22989;55.998;37.212;2022-09-24T14:55:37;2.83;;;2.05;;
37077;SDS011;22989;55.998;37.212;2022-09-24T14:58:05;3.17;;;2.22;;
37077;SDS011;22989;55.998;37.212;2022-09-24T15:00:47;3.30;;;1.92;;
37077;SDS011;22989;55.998;37.212;2022-09-24T15:03:16;4.15;;;3.00;;
37077;SDS011;22989;55.998;37.212;2022-09-24T15:05:44;3.40;;;1.88;;
37077;SDS011;22989;55.998;37.212;2022-09-24T15:08:26;3.05;;;1.70;;
37077;SDS011;22989;55.998;37.212;2022-09-24T15:10:53;2.20;;;1.67;;
37077;SDS011;22989;55.998;37.212;2022-09-24T15:13:25;2.38;;;1.92;;
37077;SDS011;22989;55.998;37.212;2022-09-24T15:16:04;3.78;;;1.67;;
37077;SDS011;22989;55.998;37.212;2022-09-24T15:18:31;2.33;;;1.50;;
37077;SDS011;22989;55.998;37.212;2022-09-24T15:20:58;2.08;;;1.50;;
37077;SDS011;22989;55.998;37.212;2022-09-24T15:23:24;2.80;;;1.52;;
37077;SDS011;22989;55.998;37.212;2022-09-24T15:25:50;2.03;;;1.15;;
37077;SDS011;22989;55.998;37.212;2022-09-24T15:28:16;1.85;;;1.40;;
37077;SDS011;22989;55.998;37.212;2022-09-24T15:30:41;1.80;;;1.40;;
37077;SDS011;22989;55.998;37.212;2022-09-24T15:33:11;3.35;;;2.00;;
37077;SDS011;22989;55.998;37.212;2022-09-24T15:35:37;2.28;;;1.55;;
37077;SDS011;22989;55.998;37.212;2022-09-24T15:38:05;3.45;;;1.83;;
37077;SDS011;22989;55.998;37.212;2022-09-24T15:43:04;2.42;;;1.67;;
37077;SDS011;22989;55.998;37.212;2022-09-24T15:45:36;2.70;;;1.67;;
37077;SDS011;22989;55.998;37.212;2022-09-24T15:48:02;1.52;;;1.40;;
37077;SDS011;22989;55.998;37.212;2022-09-24T15:50:28;4.40;;;1.80;;
37077;SDS011;22989;55.998;37.212;2022-09-24T15:52:57;2.90;;;1.85;;
37077;SDS011;22989;55.998;37.212;2022-09-24T15:55:25;2.08;;;1.52;;
37077;SDS011;22989;55.998;37.212;2022-09-24T15:57:51;2.60;;;1.30;;
37077;SDS011;22989;55.998;37.212;2022-09-24T16:00:19;1.38;;;1.10;;
37077;SDS011;22989;55.998;37.212;2022-09-24T16:02:47;1.30;;;1.20;;
37077;SDS011;22989;55.998;37.212;2022-09-24T16:05:14;3.53;;;1.40;;
37077;SDS011;22989;55.998;37.212;2022-09-24T16:07:41;2.28;;;1.35;;
37077;SDS011;22989;55.998;37.212;2022-09-24T16:10:07;4.13;;;1.25;;
37077;SDS011;22989;55.998;37.212;2022-09-24T16:12:33;1.55;;;1.30;;
37077;SDS011;22989;55.998;37.212;2022-09-24T16:14:59;1.80;;;1.42;;
37077;SDS011;22989;55.998;37.212;2022-09-24T16:17:25;1.10;;;1.00;;
37077;SDS011;22989;55.998;37.212;2022-09-24T16:19:52;2.30;;;1.63;;
37077;SDS011;22989;55.998;37.212;2022-09-24T16:22:17;2.65;;;1.63;;
37077;SDS011;22989;55.998;37.212;2022-09-24T16:24:43;2.55;;;1.65;;
37077;SDS011;22989;55.998;37.212;2022-09-24T16:27:09;1.67;;;1.10;;
37077;SDS011;22989;55.998;37.212;2022-09-24T16:29:35;1.40;;;1.13;;
37077;SDS011;22989;55.998;37.212;2022-09-24T16:32:00;2.78;;;1.23;;
37077;SDS011;22989;55.998;37.212;2022-09-24T16:34:27;1.05;;;0.95;;
37077;SDS011;22989;55.998;37.212;2022-09-24T16:36:53;2.03;;;1.40;;
37077;SDS011;22989;55.998;37.212;2022-09-24T16:39:19;2.90;;;1.90;;
37077;SDS011;22989;55.998;37.212;2022-09-24T16:41:48;1.40;;;1.30;;
37077;SDS011;22989;55.998;37.212;2022-09-24T16:44:14;1.73;;;1.50;;
37077;SDS011;22989;55.998;37.212;2022-09-24T16:46:41;2.05;;;1.60;;
37077;SDS011;22989;55.998;37.212;2022-09-24T16:49:07;1.77;;;1.42;;
37077;SDS011;22989;55.998;37.212;2022-09-24T16:51:33;1.50;;;1.40;;
37077;SDS011;22989;55.998;37.212;2022-09-24T16:53:59;2.15;;;1.55;;
37077;SDS011;22989;55.998;37.212;2022-09-24T16:56:25;1.70;;;1.60;;
37077;SDS011;22989;55.998;37.212;2022-09-24T16:58:51;1.77;;;1.58;;
37077;SDS011;22989;55.998;37.212;2022-09-24T17:01:18;3.35;;;2.00;;
37077;SDS011;22989;55.998;37.212;2022-09-24T17:03:54;3.33;;;1.95;;
37077;SDS011;22989;55.998;37.212;2022-09-24T17:06:22;5.22;;;2.88;;
37077;SDS011;22989;55.998;37.212;2022-09-24T17:08:50;1.92;;;1.75;;
37077;SDS011;22989;55.998;37.212;2022-09-24T17:11:35;2.63;;;2.22;;
37077;SDS011;22989;55.998;37.212;2022-09-24T17:14:03;2.80;;;1.60;;
37077;SDS011;22989;55.998;37.212;2022-09-24T17:16:30;1.73;;;1.60;;
37077;SDS011;22989;55.998;37.212;2022-09-24T17:18:56;1.60;;;1.40;;
37077;SDS011;22989;55.998;37.212;2022-09-24T17:21:21;2.55;;;1.70;;
37077;SDS011;22989;55.998;37.212;2022-09-24T17:23:48;7.60;;;5.80;;
37077;SDS011;22989;55.998;37.212;2022-09-24T17:26:15;2.47;;;1.60;;
37077;SDS011;22989;55.998;37.212;2022-09-24T17:28:42;2.33;;;1.60;;